Time;durP1;ratioP1;P1;durP2;ratioP2;P2;SDS_P1;SDS_P2;PMS_P1;PMS_P2;Temp;Humidity;BMP_temperature;BMP_pressure;BME280_temperature;BME280_humidity;BME280_pressure;Samples;Min_cycle;Max_cycle;Signal;HPM_P1;HPM_P2
2023/11/11 00:04:36;;;;;;;28.90;21.60;;;;;;;7.57;89.75;97426.42;226878;1275;22494;-79
2023/11/11 00:09:42;;;;;;;32.40;22.90;;;;;;;7.57;89.68;97425.41;227052;1274;22544;-80
2023/11/11 00:14:45;;;;;;;31.60;23.20;;;;;;;7.56;90.03;97427.20;226878;1275;22551;-80
2023/11/11 00:19:51;;;;;;;30.80;23.10;;;;;;;7.56;89.84;97434.81;226797;1272;22544;-80
2023/11/11 00:24:55;;;;;;;30.30;22.70;;;;;;;7.59;89.60;97432.64;226954;1275;22547;-80
2023/11/11 00:30:00;;;;;;;27.10;20.20;;;;;;;7.63;90.16;97436.85;227042;1273;22543;-80
2023/11/11 00:35:08;;;;;;;31.20;21.70;;;;;;;7.65;89.70;97437.45;226814;1269;23006;-79
2023/11/11 00:40:11;;;;;;;26.30;19.60;;;;;;;7.66;89.98;97436.85;226830;1274;22713;-80
2023/11/11 00:45:36;;;;;;;28.30;20.30;;;;;;;7.67;89.72;97438.92;227053;1275;22548;-80
2023/11/11 00:50:58;;;;;;;24.90;18.60;;;;;;;7.70;89.98;97440.79;226891;1273;22527;-79
2023/11/11 00:56:07;;;;;;;25.30;18.70;;;;;;;7.72;89.96;97437.00;227069;1256;22647;-80
2023/11/11 01:01:12;;;;;;;24.20;17.80;;;;;;;7.76;89.85;97434.90;226865;1275;23081;-80
2023/11/11 01:06:18;;;;;;;22.70;16.80;;;;;;;7.77;89.55;97434.54;226941;1272;22529;-81
2023/11/11 01:11:27;;;;;;;22.70;17.10;;;;;;;7.76;89.55;97432.84;227049;1275;22551;-80
2023/11/11 01:16:46;;;;;;;20.80;15.80;;;;;;;7.74;89.61;97429.44;226946;1275;22654;-80
2023/11/11 01:21:56;;;;;;;21.20;15.90;;;;;;;7.71;89.64;97424.40;227031;1272;23629;-80
2023/11/11 01:27:21;;;;;;;20.30;15.90;;;;;;;7.73;90.10;97418.29;226941;1273;22685;-80
2023/11/11 01:32:51;;;;;;;20.00;15.50;;;;;;;7.78;90.15;97414.65;226798;1275;22570;-80
2023/11/11 01:37:57;;;;;;;19.30;14.60;;;;;;;7.81;90.14;97402.56;226936;1274;22611;-79
2023/11/11 01:43:00;;;;;;;18.70;14.40;;;;;;;7.80;89.60;97400.73;227043;1274;22547;-79
2023/11/11 01:48:16;;;;;;;20.50;14.50;;;;;;;7.80;89.47;97400.44;226754;1275;215962;-79
2023/11/11 01:53:32;;;;;;;19.20;15.40;;;;;;;7.83;89.98;97400.98;227066;1275;22563;-80
2023/11/11 01:58:39;;;;;;;19.40;14.80;;;;;;;7.82;89.50;97397.55;226931;1275;23551;-80
2023/11/11 02:03:47;;;;;;;17.50;13.60;;;;;;;7.81;89.92;97393.53;226857;1275;25290;-80
2023/11/11 02:08:54;;;;;;;18.10;14.00;;;;;;;7.75;89.59;97386.37;226993;1275;25599;-80
2023/11/11 02:14:49;;;;;;;18.00;13.70;;;;;;;7.71;89.61;97377.78;227016;1275;22543;-79
2023/11/11 02:20:33;;;;;;;18.10;13.40;;;;;;;7.71;89.63;97367.11;227121;1274;22761;-79
2023/11/11 02:25:38;;;;;;;15.90;12.90;;;;;;;7.69;89.69;97373.02;227018;1274;22548;-79
2023/11/11 02:30:46;;;;;;;18.50;13.60;;;;;;;7.64;89.74;97381.86;226921;1274;22578;-79
2023/11/11 02:35:52;;;;;;;19.20;14.60;;;;;;;7.62;89.81;97369.73;226871;1273;23217;-80
2023/11/11 02:40:58;;;;;;;17.10;13.20;;;;;;;7.64;89.62;97369.97;226894;1258;22540;-80
2023/11/11 02:46:15;;;;;;;16.30;13.70;;;;;;;7.62;89.92;97371.94;226999;1275;22524;-80
2023/11/11 02:51:18;;;;;;;16.40;13.20;;;;;;;7.63;90.03;97369.04;226921;1274;25387;-79
2023/11/11 02:56:25;;;;;;;14.90;12.70;;;;;;;7.63;89.81;97362.09;226949;1274;22540;-80
2023/11/11 03:01:36;;;;;;;19.10;13.20;;;;;;;7.61;89.72;97364.66;226973;1274;22577;-79
2023/11/11 03:07:23;;;;;;;18.20;13.80;;;;;;;7.58;89.75;97359.86;226979;1274;22650;-79
2023/11/11 03:12:26;;;;;;;16.90;13.00;;;;;;;7.53;89.81;97362.75;226887;1274;22561;-80
2023/11/11 03:17:36;;;;;;;16.30;12.90;;;;;;;7.46;89.82;97368.48;226983;1275;22538;-79
2023/11/11 03:22:39;;;;;;;17.40;13.90;;;;;;;7.41;89.87;97368.61;227096;1274;23729;-80
2023/11/11 03:27:43;;;;;;;16.30;13.50;;;;;;;7.40;89.93;97364.74;227032;1275;22549;-79
2023/11/11 03:32:59;;;;;;;18.20;12.20;;;;;;;7.40;90.35;97350.67;226989;1272;22552;-79
2023/11/11 03:38:25;;;;;;;17.70;13.70;;;;;;;7.40;90.07;97337.34;227055;1274;22705;-79
2023/11/11 03:43:45;;;;;;;18.30;13.80;;;;;;;7.39;90.22;97329.48;226944;1275;22491;-79
2023/11/11 03:48:50;;;;;;;17.60;14.20;;;;;;;7.36;90.02;97318.98;227067;1267;22523;-79
2023/11/11 03:53:52;;;;;;;22.00;16.70;;;;;;;7.35;90.23;97324.27;227083;1274;22588;-79
2023/11/11 03:59:20;;;;;;;22.00;16.50;;;;;;;7.32;90.26;97329.40;226915;1273;22586;-79
2023/11/11 04:04:44;;;;;;;;;;;;;;;;;;;;;
2023/11/11 04:09:56;;;;;;;23.90;19.70;;;;;;;7.30;90.38;97317.67;226938;1274;22598;-79
2023/11/11 04:15:03;;;;;;;28.00;21.50;;;;;;;7.32;90.77;97313.35;226966;1273;22541;-78
2023/11/11 04:20:20;;;;;;;27.40;21.70;;;;;;;7.35;90.58;97308.34;226836;1274;22547;-78
2023/11/11 04:25:26;;;;;;;26.80;21.90;;;;;;;7.37;90.63;97303.61;227066;1251;22571;-79
2023/11/11 04:30:42;;;;;;;27.40;19.10;;;;;;;7.40;90.76;97311.86;227001;1274;22583;-79
2023/11/11 04:35:51;;;;;;;26.30;19.00;;;;;;;7.40;90.68;97319.83;227106;1271;22548;-79
2023/11/11 04:41:09;;;;;;;22.30;17.90;;;;;;;7.40;90.46;97316.88;226896;1274;22536;-80
2023/11/11 04:46:13;;;;;;;22.20;18.20;;;;;;;7.41;90.58;97320.31;227085;1273;22527;-80
2023/11/11 04:51:53;;;;;;;;;;;;;;;;;;;;;
2023/11/11 04:57:02;;;;;;;25.20;19.40;;;;;;;7.36;90.51;97326.05;227041;1269;22497;-80
2023/11/11 05:02:11;;;;;;;24.20;19.40;;;;;;;7.33;90.42;97327.55;226755;1274;22615;-80
2023/11/11 05:07:15;;;;;;;23.10;17.40;;;;;;;7.32;90.29;97330.53;226846;1274;22560;-79
2023/11/11 05:12:17;;;;;;;22.70;17.30;;;;;;;7.31;90.38;97325.23;227041;1271;22571;-80
2023/11/11 05:17:25;;;;;;;21.20;16.80;;;;;;;7.33;90.48;97324.47;227078;1267;22545;-80
2023/11/11 05:22:42;;;;;;;20.90;16.10;;;;;;;7.34;90.35;97321.89;226921;1273;22540;-80
2023/11/11 05:28:43;;;;;;;;;;;;;;;;;;;;;
2023/11/11 05:34:40;;;;;;;23.40;17.60;;;;;;;7.43;90.36;97318.79;226865;1274;22550;-80
2023/11/11 05:39:53;;;;;;;20.20;16.10;;;;;;;7.46;90.32;97317.50;227041;1272;22552;-80
2023/11/11 05:44:59;;;;;;;;;;;;;;;7.48;90.24;97324.54;226918;1273;24309;-80
2023/11/11 05:50:06;;;;;;;21.20;17.30;;;;;;;7.49;90.28;97335.02;226978;1269;24261;-80
2023/11/11 05:55:13;;;;;;;20.30;16.50;;;;;;;7.50;90.34;97337.15;226902;1274;22544;-80
2023/11/11 06:00:27;;;;;;;21.50;17.90;;;;;;;7.53;90.46;97339.95;226874;1273;22546;-80
2023/11/11 06:06:41;;;;;;;20.30;16.50;;;;;;;7.57;90.43;97338.36;226964;1274;22554;-79
2023/11/11 06:12:47;;;;;;;20.20;17.10;;;;;;;7.59;90.11;97347.36;227044;1274;22524;-79
2023/11/11 06:18:43;;;;;;;22.30;17.70;;;;;;;7.54;89.73;97354.86;227083;1274;22557;-80
2023/11/11 06:23:58;;;;;;;21.80;17.10;;;;;;;7.51;89.65;97361.20;227037;1275;22527;-79
2023/11/11 06:29:09;;;;;;;20.60;16.20;;;;;;;7.50;89.73;97366.70;226828;1274;22544;-79
2023/11/11 06:34:22;;;;;;;22.20;18.10;;;;;;;7.49;89.55;97373.09;226845;1275;22643;-79
2023/11/11 06:39:30;;;;;;;22.50;19.40;;;;;;;7.47;89.80;97378.23;226918;1272;22563;-80
2023/11/11 06:44:34;;;;;;;26.30;20.00;;;;;;;7.43;89.91;97387.85;227116;1274;24234;-79
2023/11/11 06:49:36;;;;;;;24.60;18.30;;;;;;;7.40;90.04;97391.34;226907;1274;25281;-80
2023/11/11 06:54:43;;;;;;;24.50;19.50;;;;;;;7.41;90.07;97388.73;226882;1274;22557;-79
2023/11/11 07:00:15;;;;;;;;;;;;;;;;;;;;;
2023/11/11 07:05:19;;;;;;;24.10;17.90;;;;;;;7.50;90.05;97394.43;226997;1274;25915;-80
2023/11/11 07:10:21;;;;;;;21.10;16.70;;;;;;;7.54;90.26;97396.02;227123;1272;25250;-80
2023/11/11 07:15:29;;;;;;;21.60;17.10;;;;;;;7.56;89.76;97395.63;227041;1275;22556;-80
2023/11/11 07:20:32;;;;;;;22.60;17.80;;;;;;;7.58;89.66;97395.84;226905;1273;22947;-79
2023/11/11 07:25:35;;;;;;;22.30;17.80;;;;;;;7.61;89.51;97395.80;226940;1273;22584;-80
2023/11/11 07:30:42;;;;;;;22.80;18.70;;;;;;;7.63;89.51;97392.53;226931;1273;25115;-79
2023/11/11 07:35:45;;;;;;;25.10;19.00;;;;;;;7.66;89.48;97390.76;226845;1273;22539;-79
2023/11/11 07:41:02;;;;;;;22.00;17.90;;;;;;;7.66;89.19;97382.52;226778;1271;22549;-80
2023/11/11 07:46:22;;;;;;;22.70;18.20;;;;;;;7.67;89.19;97383.65;226890;1269;22549;-80
2023/11/11 07:51:25;;;;;;;22.40;18.40;;;;;;;7.70;88.87;97381.38;227217;1271;22560;-80
2023/11/11 07:56:47;;;;;;;;;;;;;;;;;;;;;
2023/11/11 08:02:00;;;;;;;21.70;18.30;;;;;;;7.84;89.00;97373.11;227118;1274;22636;-80
2023/11/11 08:07:13;;;;;;;25.00;19.70;;;;;;;7.88;88.69;97375.27;226967;1274;22651;-80
2023/11/11 08:12:29;;;;;;;23.90;19.50;;;;;;;7.92;88.31;97378.05;226795;1270;22533;-80
2023/11/11 08:17:35;;;;;;;25.10;20.00;;;;;;;7.98;88.38;97381.13;226875;1275;22551;-80
2023/11/11 08:22:44;;;;;;;23.20;18.70;;;;;;;8.01;88.71;97385.60;226868;1273;22595;-80
2023/11/11 08:27:54;;;;;;;23.90;19.70;;;;;;;8.09;88.19;97383.77;226865;1274;22539;-80
2023/11/11 08:33:02;;;;;;;28.30;23.10;;;;;;;8.18;88.49;97382.12;226890;1274;22556;-81
2023/11/11 08:38:11;;;;;;;;;;;;;;;8.29;87.97;97383.76;226999;1274;22529;-80
2023/11/11 08:43:15;;;;;;;27.10;21.60;;;;;;;8.43;88.35;97379.59;226807;1274;24228;-80
2023/11/11 08:48:18;;;;;;;25.40;20.70;;;;;;;8.55;87.99;97385.91;226815;1274;22564;-80
2023/11/11 08:53:24;;;;;;;25.50;19.60;;;;;;;8.63;87.47;97384.24;226847;1274;22483;-80
2023/11/11 08:59:14;;;;;;;26.60;21.20;;;;;;;8.80;87.59;97385.90;226898;1274;22602;-79
2023/11/11 09:04:22;;;;;;;27.00;21.90;;;;;;;9.01;87.38;97387.45;227050;1274;22563;-80
2023/11/11 09:09:55;;;;;;;;;;;;;;;;;;;;;
2023/11/11 09:15:24;;;;;;;25.50;21.60;;;;;;;9.35;86.73;97383.14;226802;1274;22536;-80
2023/11/11 09:20:29;;;;;;;27.60;21.60;;;;;;;9.46;86.49;97383.77;227077;1272;23283;-80
2023/11/11 09:25:41;;;;;;;28.20;21.80;;;;;;;9.58;86.32;97379.61;226874;1273;25810;-80
2023/11/11 09:30:43;;;;;;;23.70;19.60;;;;;;;9.70;86.25;97378.27;226842;1275;22549;-81
2023/11/11 09:35:49;;;;;;;24.70;20.80;;;;;;;9.78;85.56;97378.98;227068;1271;22548;-79
2023/11/11 09:40:56;;;;;;;25.80;21.60;;;;;;;9.83;85.53;97378.52;226780;1274;22549;-80
2023/11/11 09:46:03;;;;;;;23.50;20.00;;;;;;;9.84;84.93;97376.68;226810;1275;22543;-80
2023/11/11 09:51:07;;;;;;;26.70;19.80;;;;;;;9.88;84.97;97362.23;226728;1273;22537;-80
2023/11/11 09:56:12;;;;;;;23.40;19.00;;;;;;;9.99;84.90;97353.85;226931;1269;22548;-80
2023/11/11 10:01:46;;;;;;;22.60;17.70;;;;;;;10.05;84.60;97348.08;226916;1273;22613;-80
2023/11/11 10:06:52;;;;;;;22.60;18.30;;;;;;;10.03;84.13;97338.19;227053;1272;25338;-80
2023/11/11 10:11:57;;;;;;;21.70;18.70;;;;;;;9.99;83.95;97334.44;226910;1273;22550;-80
2023/11/11 10:17:03;;;;;;;20.20;18.00;;;;;;;9.93;84.00;97334.69;226861;1274;22533;-80
2023/11/11 10:22:14;;;;;;;21.40;17.60;;;;;;;9.88;84.00;97329.13;226832;1270;24209;-79
2023/11/11 10:27:23;;;;;;;19.30;16.40;;;;;;;9.87;84.01;97323.16;226961;1272;22552;-79
2023/11/11 10:32:55;;;;;;;21.50;17.40;;;;;;;9.93;84.08;97319.54;226880;1270;22537;-79
2023/11/11 10:38:34;;;;;;;19.40;17.30;;;;;;;9.97;83.79;97312.98;226850;1274;22536;-79
2023/11/11 10:44:27;;;;;;;19.70;15.80;;;;;;;10.01;83.53;97301.91;227028;1269;22565;-79
2023/11/11 10:49:43;;;;;;;18.90;15.10;;;;;;;10.07;83.28;97300.05;226997;1275;25406;-79
2023/11/11 10:55:07;;;;;;;19.30;13.80;;;;;;;10.14;83.04;97296.64;226946;1269;22544;-79
2023/11/11 11:00:23;;;;;;;15.10;12.20;;;;;;;10.27;82.82;97289.27;226963;1269;22597;-80
2023/11/11 11:06:02;;;;;;;;;;;;;;;;;;;;;
2023/11/11 11:11:25;;;;;;;16.60;13.30;;;;;;;10.54;82.34;97291.81;227080;1274;22651;-80
2023/11/11 11:16:34;;;;;;;15.50;13.50;;;;;;;10.76;82.18;97300.29;227055;1266;24226;-80
2023/11/11 11:21:37;;;;;;;18.30;14.90;;;;;;;10.92;81.79;97294.31;226852;1260;22543;-80
2023/11/11 11:27:01;;;;;;;15.90;14.00;;;;;;;10.99;81.46;97294.63;226822;1272;22572;-80
2023/11/11 11:32:10;;;;;;;18.30;15.00;;;;;;;10.89;80.48;97303.22;226447;1278;24248;-79
2023/11/11 11:37:14;;;;;;;16.00;13.30;;;;;;;10.77;80.64;97300.47;226578;1259;22533;-79
2023/11/11 11:42:56;;;;;;;14.90;12.80;;;;;;;10.70;80.45;97300.68;226319;1278;22593;-79
2023/11/11 11:48:09;;;;;;;14.70;12.70;;;;;;;10.68;80.35;97301.94;226437;1278;22568;-80
2023/11/11 11:53:21;;;;;;;19.60;15.20;;;;;;;10.62;80.37;97295.28;226420;1276;22728;-79
2023/11/11 11:59:30;;;;;;;16.00;12.60;;;;;;;10.63;80.65;97291.69;226272;1278;22564;-79
2023/11/11 12:04:33;;;;;;;13.20;11.00;;;;;;;10.71;80.52;97301.95;226816;1274;22532;-80
2023/11/11 12:09:46;;;;;;;13.60;11.20;;;;;;;10.70;80.13;97302.46;226934;1273;22554;-79
2023/11/11 12:14:50;;;;;;;12.60;11.10;;;;;;;10.65;79.99;97300.97;226910;1273;22559;-80
2023/11/11 12:19:57;;;;;;;14.30;11.30;;;;;;;10.59;79.93;97299.86;226896;1273;22583;-79
2023/11/11 12:25:02;;;;;;;15.70;12.50;;;;;;;10.62;80.20;97296.13;226990;1271;24212;-80
2023/11/11 12:30:21;;;;;;;16.50;13.70;;;;;;;10.62;79.93;97291.27;226910;1274;24219;-80
2023/11/11 12:35:24;;;;;;;12.70;10.10;;;;;;;10.54;79.46;97292.66;226927;1274;22543;-79
2023/11/11 12:40:49;;;;;;;;;;;;;;;;;;;;;
2023/11/11 12:45:59;;;;;;;9.90;8.80;;;;;;;10.36;78.91;97288.12;227051;1274;22589;-80
2023/11/11 12:51:06;;;;;;;12.50;11.20;;;;;;;10.39;78.87;97289.03;226986;1274;22559;-80
2023/11/11 12:56:09;;;;;;;13.10;11.70;;;;;;;10.37;78.83;97286.86;226873;1273;22547;-80
2023/11/11 13:01:12;;;;;;;14.30;12.70;;;;;;;10.38;79.04;97289.80;226875;1275;22711;-80
2023/11/11 13:06:29;;;;;;;14.30;12.60;;;;;;;10.38;79.02;97289.11;226994;1272;22540;-80
2023/11/11 13:11:35;;;;;;;16.70;13.90;;;;;;;10.36;78.99;97291.82;226877;1273;22593;-79
2023/11/11 13:16:39;;;;;;;16.10;13.80;;;;;;;10.28;78.52;97290.36;226902;1265;22546;-79
2023/11/11 13:21:54;;;;;;;18.10;14.90;;;;;;;10.17;78.71;97290.77;226801;1275;25409;-79
2023/11/11 13:27:01;;;;;;;16.80;13.70;;;;;;;10.06;78.59;97290.77;226849;1275;25924;-80
2023/11/11 13:32:07;;;;;;;16.90;14.30;;;;;;;10.02;79.29;97289.15;226945;1274;22524;-79
2023/11/11 13:38:07;;;;;;;16.40;14.60;;;;;;;10.03;79.32;97288.81;227016;1275;22526;-79
2023/11/11 13:43:28;;;;;;;16.90;14.40;;;;;;;10.01;79.57;97283.84;227059;1262;22540;-79
2023/11/11 13:49:03;;;;;;;16.70;14.60;;;;;;;9.98;79.60;97284.96;226792;1270;198279;-80
2023/11/11 13:54:07;;;;;;;18.40;14.50;;;;;;;9.95;79.57;97290.13;227045;1272;22536;-80
2023/11/11 13:59:12;;;;;;;17.20;14.80;;;;;;;9.89;80.04;97288.41;227014;1272;22560;-81
2023/11/11 14:04:21;;;;;;;17.00;15.10;;;;;;;9.81;79.89;97293.27;226972;1275;22547;-80
2023/11/11 14:10:34;;;;;;;17.10;15.20;;;;;;;9.74;80.19;97300.06;227042;1274;24220;-79
2023/11/11 14:16:28;;;;;;;;;;;;;;;9.62;80.24;97299.73;226987;1274;22537;-79
2023/11/11 14:22:06;;;;;;;18.90;15.60;;;;;;;9.54;80.31;97301.55;227041;1274;22560;-80
2023/11/11 14:27:16;;;;;;;19.70;16.10;;;;;;;9.48;80.61;97305.86;227072;1270;22536;-80
2023/11/11 14:32:19;;;;;;;19.40;16.50;;;;;;;9.41;80.53;97305.94;227045;1272;23004;-80
2023/11/11 14:37:32;;;;;;;20.80;16.30;;;;;;;9.31;80.63;97311.55;226946;1275;22556;-79
2023/11/11 14:42:37;;;;;;;20.00;17.20;;;;;;;9.24;80.73;97315.64;226949;1275;22547;-79
2023/11/11 14:48:02;;;;;;;18.80;16.40;;;;;;;9.16;80.75;97314.14;226891;1272;22541;-79
2023/11/11 14:53:14;;;;;;;21.60;18.10;;;;;;;9.06;80.82;97318.83;226859;1275;25332;-79
2023/11/11 14:58:17;;;;;;;21.60;18.30;;;;;;;9.01;81.08;97324.87;226982;1269;22536;-79
2023/11/11 15:03:37;;;;;;;25.20;19.00;;;;;;;8.97;81.30;97330.52;226926;1269;22524;-79
2023/11/11 15:08:40;;;;;;;24.50;20.00;;;;;;;8.94;81.81;97333.95;227014;1275;22534;-81
2023/11/11 15:13:45;;;;;;;26.30;21.80;;;;;;;8.89;81.82;97338.16;226886;1272;22556;-79
2023/11/11 15:18:48;;;;;;;27.40;22.30;;;;;;;8.84;81.59;97344.48;226885;1275;22563;-79
2023/11/11 15:23:51;;;;;;;26.80;22.70;;;;;;;8.78;82.03;97346.69;226961;1272;22578;-79
2023/11/11 15:29:50;;;;;;;28.70;23.90;;;;;;;8.75;82.33;97353.96;226924;1272;22536;-80
2023/11/11 15:34:59;;;;;;;28.80;23.00;;;;;;;8.72;82.38;97359.49;226776;1274;22659;-80
2023/11/11 15:40:08;;;;;;;34.50;25.00;;;;;;;8.68;82.34;97366.96;227095;1275;22596;-79
2023/11/11 15:45:13;;;;;;;30.80;23.90;;;;;;;8.65;82.47;97370.98;226977;1273;22565;-79
2023/11/11 15:50:28;;;;;;;33.10;24.30;;;;;;;8.60;82.12;97370.13;227043;1272;24241;-80
2023/11/11 15:55:33;;;;;;;30.90;23.30;;;;;;;8.55;82.67;97372.58;226771;1272;22562;-79
2023/11/11 16:01:17;;;;;;;33.10;24.40;;;;;;;8.47;82.67;97377.42;226986;1275;22549;-79
2023/11/11 16:06:26;;;;;;;28.70;21.40;;;;;;;8.39;82.82;97379.04;227003;1271;22552;-80
2023/11/11 16:11:30;;;;;;;30.40;23.20;;;;;;;8.32;82.68;97380.75;227015;1273;22562;-80
2023/11/11 16:16:36;;;;;;;29.30;22.40;;;;;;;8.24;82.96;97379.91;227068;1272;22536;-79
2023/11/11 16:21:40;;;;;;;32.70;24.10;;;;;;;8.17;82.87;97383.33;226815;1275;22551;-80
2023/11/11 16:26:47;;;;;;;36.90;26.00;;;;;;;8.09;83.06;97382.73;226914;1275;22481;-79
2023/11/11 16:31:49;;;;;;;39.40;28.60;;;;;;;8.03;83.36;97392.91;226660;1256;22608;-79
2023/11/11 16:36:53;;;;;;;46.60;34.50;;;;;;;7.96;83.07;97404.23;226830;1273;25236;-79
2023/11/11 16:41:55;;;;;;;48.60;36.00;;;;;;;7.88;83.27;97411.03;226974;1275;22572;-79
2023/11/11 16:47:04;;;;;;;55.10;39.00;;;;;;;7.80;83.53;97416.30;227047;1272;22559;-79
2023/11/11 16:52:23;;;;;;;;;;;;;;;;;;;;;
2023/11/11 16:57:30;;;;;;;49.20;35.90;;;;;;;7.66;83.97;97422.90;226880;1274;22588;-80
2023/11/11 17:02:56;;;;;;;48.90;35.50;;;;;;;7.61;83.70;97426.61;226932;1262;22544;-79
2023/11/11 17:08:00;;;;;;;50.50;37.90;;;;;;;7.54;83.83;97430.11;226922;1275;22534;-80
2023/11/11 17:13:25;;;;;;;63.80;43.30;;;;;;;7.49;83.70;97436.23;226898;1269;25391;-80
2023/11/11 17:18:29;;;;;;;62.20;42.30;;;;;;;7.44;84.07;97433.00;227019;1275;22547;-79
2023/11/11 17:23:33;;;;;;;56.90;37.20;;;;;;;7.42;84.10;97437.60;226926;1274;22550;-80
2023/11/11 17:28:52;;;;;;;51.80;33.20;;;;;;;7.39;84.45;97440.85;227018;1272;22527;-80
2023/11/11 17:33:55;;;;;;;57.40;35.90;;;;;;;7.36;84.21;97446.91;227048;1275;22549;-79
2023/11/11 17:39:02;;;;;;;42.60;29.90;;;;;;;7.33;84.54;97443.59;226946;1275;22544;-79
2023/11/11 17:44:08;;;;;;;37.40;27.60;;;;;;;7.31;84.69;97450.52;226945;1275;24250;-79
2023/11/11 17:49:13;;;;;;;40.10;26.60;;;;;;;7.28;84.70;97449.47;226753;1275;22539;-79
2023/11/11 17:54:18;;;;;;;37.80;27.90;;;;;;;7.25;84.88;97454.81;226952;1275;23031;-79
2023/11/11 17:59:21;;;;;;;40.70;29.70;;;;;;;7.24;85.02;97458.98;226897;1275;23413;-79
2023/11/11 18:04:26;;;;;;;46.30;32.60;;;;;;;7.23;84.92;97461.04;227013;1273;22534;-80
2023/11/11 18:09:32;;;;;;;45.30;32.20;;;;;;;7.20;84.65;97467.04;226980;1274;22541;-77
2023/11/11 18:14:37;;;;;;;50.50;32.60;;;;;;;7.17;84.81;97471.51;226792;1251;25434;-80
2023/11/11 18:19:45;;;;;;;45.20;31.40;;;;;;;7.13;84.97;97472.20;226911;1274;22550;-80
2023/11/11 18:24:51;;;;;;;40.10;29.50;;;;;;;7.11;85.26;97473.26;226967;1275;22543;-79
2023/11/11 18:29:59;;;;;;;41.00;29.90;;;;;;;7.12;85.35;97477.95;226973;1270;22528;-77
2023/11/11 18:35:10;;;;;;;54.10;37.20;;;;;;;7.14;85.37;97484.14;226979;1275;22540;-79
2023/11/11 18:40:13;;;;;;;58.70;39.30;;;;;;;7.17;85.02;97481.48;227081;1271;22579;-79
2023/11/11 18:45:17;;;;;;;52.40;35.00;;;;;;;7.18;85.06;97483.23;226770;1274;22590;-81
2023/11/11 18:50:22;;;;;;;48.70;32.60;;;;;;;7.19;84.98;97485.79;226938;1273;22550;-79
2023/11/11 18:55:29;;;;;;;48.10;33.90;;;;;;;7.19;84.97;97488.21;226923;1274;22554;-79
2023/11/11 19:00:41;;;;;;;48.60;32.90;;;;;;;7.19;84.92;97490.60;226917;1274;22580;-80
2023/11/11 19:05:49;;;;;;;39.80;29.00;;;;;;;7.19;84.73;97489.63;227074;1274;22559;-79
2023/11/11 19:11:01;;;;;;;41.50;27.70;;;;;;;7.17;84.64;97493.29;227044;1274;22536;-79
2023/11/11 19:16:09;;;;;;;35.60;26.40;;;;;;;7.18;84.54;97497.05;226965;1272;22584;-79
2023/11/11 19:21:24;;;;;;;30.50;22.10;;;;;;;7.17;84.62;97496.69;226982;1274;25574;-80
2023/11/11 19:26:27;;;;;;;28.00;20.70;;;;;;;7.17;84.34;97498.46;226957;1275;22548;-79
2023/11/11 19:31:32;;;;;;;27.40;18.40;;;;;;;7.15;84.41;97494.17;226991;1274;22586;-79
2023/11/11 19:36:35;;;;;;;26.60;18.50;;;;;;;7.13;84.20;97498.29;227101;1272;22536;-80
2023/11/11 19:41:47;;;;;;;25.50;17.60;;;;;;;7.12;84.21;97504.20;226860;1274;22545;-80
2023/11/11 19:46:52;;;;;;;22.20;16.20;;;;;;;7.10;84.13;97502.98;227108;1275;22531;-79
2023/11/11 19:51:58;;;;;;;23.10;16.40;;;;;;;7.08;84.11;97504.06;227008;1275;22543;-79
2023/11/11 19:57:00;;;;;;;22.00;15.80;;;;;;;7.07;83.60;97503.33;226972;1270;22561;-80
2023/11/11 20:02:05;;;;;;;20.40;14.70;;;;;;;7.05;83.71;97507.08;226856;1270;25316;-79
2023/11/11 20:07:18;;;;;;;22.40;15.70;;;;;;;7.03;83.61;97514.55;227014;1272;22555;-80
2023/11/11 20:12:23;;;;;;;21.00;14.70;;;;;;;7.01;83.94;97512.48;226885;1275;22621;-79
2023/11/11 20:17:26;;;;;;;22.70;15.70;;;;;;;7.01;83.88;97517.60;226890;1274;23476;-80
2023/11/11 20:22:32;;;;;;;23.60;16.30;;;;;;;7.01;83.55;97518.20;226957;1272;25326;-78
2023/11/11 20:27:38;;;;;;;19.00;14.60;;;;;;;7.00;83.30;97518.89;227020;1274;22629;-79
2023/11/11 20:32:43;;;;;;;21.50;14.60;;;;;;;6.96;83.25;97524.31;226976;1268;22536;-79
2023/11/11 20:37:46;;;;;;;23.10;14.60;;;;;;;6.90;82.47;97529.00;226789;1274;22550;-80
2023/11/11 20:42:58;;;;;;;21.20;15.30;;;;;;;6.85;83.08;97533.29;226860;1275;22573;-79
2023/11/11 20:48:03;;;;;;;24.90;18.00;;;;;;;6.79;82.84;97540.30;226823;1275;24053;-80
2023/11/11 20:53:07;;;;;;;23.60;15.80;;;;;;;6.73;83.19;97543.48;226896;1274;23022;-80
2023/11/11 20:58:16;;;;;;;22.90;15.70;;;;;;;6.68;82.96;97544.96;226824;1275;23624;-80
2023/11/11 21:03:22;;;;;;;23.30;15.60;;;;;;;6.62;82.65;97544.09;227061;1275;22548;-80
2023/11/11 21:08:27;;;;;;;26.70;16.60;;;;;;;6.57;82.44;97547.71;226922;1275;22551;-80
2023/11/11 21:13:42;;;;;;;27.00;17.80;;;;;;;6.53;82.56;97553.91;226927;1275;22523;-80
2023/11/11 21:18:48;;;;;;;26.10;18.10;;;;;;;6.49;82.93;97553.16;226813;1274;22524;-79
2023/11/11 21:23:52;;;;;;;26.90;18.00;;;;;;;6.46;82.70;97557.55;227114;1275;22594;-80
2023/11/11 21:28:56;;;;;;;29.00;20.20;;;;;;;6.42;82.53;97560.41;226846;1274;22540;-80
2023/11/11 21:34:19;;;;;;;27.10;19.60;;;;;;;6.38;83.06;97562.25;226825;1275;22524;-80
2023/11/11 21:39:39;;;;;;;32.70;19.80;;;;;;;6.35;83.11;97562.64;226954;1264;22974;-79
2023/11/11 21:44:42;;;;;;;29.20;19.80;;;;;;;6.35;83.04;97565.23;226835;1274;24183;-79
2023/11/11 21:49:52;;;;;;;32.00;20.60;;;;;;;6.35;83.60;97568.05;227064;1274;22548;-79
2023/11/11 21:54:58;;;;;;;31.10;20.60;;;;;;;6.34;83.52;97573.20;226855;1275;22580;-79
2023/11/11 22:00:09;;;;;;;29.00;21.50;;;;;;;6.33;83.41;97578.44;226832;1273;22535;-79
2023/11/11 22:05:20;;;;;;;31.80;21.30;;;;;;;6.29;83.47;97582.64;227090;1275;23536;-79
2023/11/11 22:10:26;;;;;;;31.00;19.80;;;;;;;6.26;83.83;97583.86;226862;1273;22540;-79
2023/11/11 22:15:31;;;;;;;28.80;19.60;;;;;;;6.24;83.79;97584.62;226783;1275;22599;-80
2023/11/11 22:20:37;;;;;;;29.70;20.70;;;;;;;6.21;83.80;97589.96;226921;1274;24469;-79
2023/11/11 22:25:42;;;;;;;29.50;19.90;;;;;;;6.17;84.05;97591.98;227066;1253;22547;-79
2023/11/11 22:30:44;;;;;;;31.10;21.40;;;;;;;6.15;83.92;97595.56;226894;1274;22572;-79
2023/11/11 22:36:11;;;;;;;28.40;19.60;;;;;;;6.15;84.10;97599.39;226863;1270;23277;-79
2023/11/11 22:41:24;;;;;;;30.70;20.20;;;;;;;6.16;84.25;97604.81;226843;1275;22582;-79
2023/11/11 22:46:27;;;;;;;29.60;20.00;;;;;;;6.19;84.07;97607.63;226980;1273;22545;-79
2023/11/11 22:51:30;;;;;;;30.80;20.70;;;;;;;6.20;84.03;97607.80;226999;1270;25284;-80
2023/11/11 22:56:32;;;;;;;31.70;20.00;;;;;;;6.20;84.56;97605.45;226963;1273;22538;-79
2023/11/11 23:01:36;;;;;;;30.30;20.20;;;;;;;6.17;84.74;97604.21;227075;1270;22545;-80
2023/11/11 23:06:39;;;;;;;27.20;19.00;;;;;;;6.15;84.74;97602.86;227100;1274;22584;-80
2023/11/11 23:11:43;;;;;;;27.80;19.60;;;;;;;6.12;84.52;97608.36;227086;1267;22540;-80
2023/11/11 23:16:48;;;;;;;29.10;19.20;;;;;;;6.08;84.87;97609.50;227031;1274;22592;-80
2023/11/11 23:21:51;;;;;;;27.10;19.80;;;;;;;6.03;85.18;97608.02;227080;1270;23021;-78
2023/11/11 23:26:57;;;;;;;29.40;19.10;;;;;;;5.97;85.45;97610.52;227026;1273;22553;-78
2023/11/11 23:32:06;;;;;;;24.90;18.90;;;;;;;5.92;85.02;97609.77;226957;1274;22613;-79
2023/11/11 23:37:11;;;;;;;22.80;18.20;;;;;;;5.90;85.55;97609.66;227055;1273;22568;-79
2023/11/11 23:42:23;;;;;;;23.30;18.40;;;;;;;5.89;85.65;97613.36;226880;1274;22559;-79
2023/11/11 23:47:34;;;;;;;22.40;17.50;;;;;;;5.90;85.74;97617.65;227136;1272;22524;-79
2023/11/11 23:52:37;;;;;;;19.90;14.50;;;;;;;5.90;85.98;97620.44;226891;1274;22547;-79
2023/11/11 23:57:40;;;;;;;20.10;15.50;;;;;;;5.92;86.25;97625.59;226940;1273;22557;-79
